Time;durP1;ratioP1;P1;durP2;ratioP2;P2;SDS_P1;SDS_P2;PMS_P1;PMS_P2;Temp;Humidity;BMP_temperature;BMP_pressure;BME280_temperature;BME280_humidity;BME280_pressure;Samples;Min_cycle;Max_cycle;Signal;HPM_P1;HPM_P2
2021/12/29 06:49:14;;;;;;;2.78;1.95;;;;;;;;;;10507155;28;20470;-82
2021/12/29 06:54:16;;;;;;;4.53;3.50;;;;;;;;;;10507659;28;20044;-82
2021/12/29 06:59:17;;;;;;;3.67;2.75;;;;;;;;;;10505417;28;20401;-81
2021/12/29 07:04:18;;;;;;;;;;;;;;;;;;10502772;28;20026;-83
2021/12/29 07:09:45;;;;;;;4.38;3.88;;;;;;;;;;10503563;28;19901;-83
2021/12/29 07:14:52;;;;;;;4.35;3.47;;;;;;;;;;10501125;28;20024;-83
2021/12/29 07:19:53;;;;;;;4.18;3.35;;;;;;;;;;10511609;28;20096;-82
2021/12/29 07:24:54;;;;;;;;;;;;;;;;;;10525130;28;20119;-83
2021/12/29 07:29:56;;;;;;;8.02;7.10;;;;;;;;;;10524078;28;19911;-84
2021/12/29 07:34:59;;;;;;;3.65;3.22;;;;;;;;;;10509589;28;20045;-83
2021/12/29 07:40:05;;;;;;;;;;;;;;;;;;10505885;28;20020;-83
2021/12/29 07:45:08;;;;;;;3.95;3.55;;;;;;;;;;10503538;28;20333;-83
2021/12/29 07:50:09;;;;;;;3.33;2.58;;;;;;;;;;10503616;28;20039;-82
2021/12/29 07:55:12;;;;;;;4.32;3.30;;;;;;;;;;10502459;28;20021;-81
2021/12/29 08:00:14;;;;;;;4.38;3.63;;;;;;;;;;10474521;28;20017;-81
2021/12/29 08:05:15;;;;;;;2.70;1.98;;;;;;;;;;10471096;28;20348;-83
2021/12/29 08:10:17;;;;;;;2.80;2.33;;;;;;;;;;10472791;28;20021;-79
2021/12/29 08:15:18;;;;;;;3.80;3.00;;;;;;;;;;10467064;28;20087;-78
2021/12/29 08:20:21;;;;;;;3.47;2.80;;;;;;;;;;10461168;28;20021;-77
2021/12/29 08:25:22;;;;;;;7.30;3.75;;;;;;;;;;10464227;28;20418;-80
2021/12/29 08:30:23;;;;;;;3.97;3.28;;;;;;;;;;10466137;28;20382;-80
2021/12/29 08:35:27;;;;;;;4.38;3.53;;;;;;;;;;10467873;28;20029;-80
2021/12/29 08:40:28;;;;;;;5.50;3.88;;;;;;;;;;10467849;28;20032;-80
2021/12/29 08:45:30;;;;;;;4.82;4.03;;;;;;;;;;10473502;22;20050;-84
2021/12/29 08:50:32;;;;;;;5.30;4.22;;;;;;;;;;10430147;28;20025;-82
2021/12/29 08:55:44;;;;;;;5.72;4.60;;;;;;;;;;10429731;28;20034;-82
2021/12/29 09:00:45;;;;;;;5.97;5.03;;;;;;;;;;10431478;28;20117;-82
2021/12/29 09:05:46;;;;;;;5.95;5.35;;;;;;;;;;10430700;28;20030;-83
2021/12/29 09:10:47;;;;;;;7.00;5.43;;;;;;;;;;10431745;28;20022;-82
2021/12/29 09:15:49;;;;;;;6.72;5.40;;;;;;;;;;10434403;28;20022;-81
2021/12/29 09:20:51;;;;;;;8.32;5.32;;;;;;;;;;10443315;28;20038;-82
2021/12/29 09:25:53;;;;;;;8.18;5.10;;;;;;;;;;10466040;28;20048;-83
2021/12/29 09:30:55;;;;;;;5.53;4.82;;;;;;;;;;10434480;28;20064;-82
2021/12/29 09:36:01;;;;;;;6.65;5.20;;;;;;;;;;10432915;28;20041;-82
2021/12/29 09:41:03;;;;;;;6.50;4.88;;;;;;;;;;10434153;28;20379;-82
2021/12/29 09:46:06;;;;;;;7.32;4.93;;;;;;;;;;10428840;28;20029;-82
2021/12/29 09:51:11;;;;;;;7.60;5.93;;;;;;;;;;10429325;28;20032;-81
2021/12/29 09:56:12;;;;;;;8.48;6.03;;;;;;;;;;10429902;28;20022;-82
2021/12/29 10:01:13;;;;;;;8.18;5.75;;;;;;;;;;10430276;28;20025;-81
2021/12/29 10:06:15;;;;;;;7.45;5.00;;;;;;;;;;10447589;28;20121;-81
2021/12/29 10:11:25;;;;;;;7.28;5.00;;;;;;;;;;10429033;28;20036;-81
2021/12/29 10:16:29;;;;;;;5.63;4.90;;;;;;;;;;10428774;28;20056;-80
2021/12/29 10:21:30;;;;;;;6.78;5.57;;;;;;;;;;10425397;28;20499;-80
2021/12/29 10:26:32;;;;;;;6.78;5.80;;;;;;;;;;10431282;28;20084;-82
2021/12/29 10:31:38;;;;;;;7.78;5.88;;;;;;;;;;10433551;28;20029;-82
2021/12/29 10:36:45;;;;;;;9.00;6.00;;;;;;;;;;10437673;28;20382;-82
2021/12/29 10:42:06;;;;;;;7.57;6.40;;;;;;;;;;10435550;28;20040;-82
2021/12/29 10:47:16;;;;;;;10.20;5.32;;;;;;;;;;10428680;28;20039;-82
2021/12/29 10:52:17;;;;;;;7.82;5.22;;;;;;;;;;10458846;28;20017;-82
2021/12/29 10:57:18;;;;;;;11.07;7.72;;;;;;;;;;10431654;28;20022;-83
2021/12/29 11:02:25;;;;;;;6.72;5.95;;;;;;;;;;10440855;28;20582;-82
2021/12/29 11:07:27;;;;;;;6.20;4.90;;;;;;;;;;10430101;28;20041;-83
2021/12/29 11:12:28;;;;;;;11.70;8.18;;;;;;;;;;10429096;28;20052;-82
2021/12/29 11:17:29;;;;;;;6.35;4.72;;;;;;;;;;10431279;28;20103;-82
2021/12/29 11:22:30;;;;;;;6.13;4.75;;;;;;;;;;10451734;28;20019;-79
2021/12/29 11:27:35;;;;;;;9.75;7.03;;;;;;;;;;10435207;28;20044;-82
2021/12/29 11:32:37;;;;;;;6.90;5.50;;;;;;;;;;10429987;28;20129;-81
2021/12/29 11:37:42;;;;;;;5.72;4.50;;;;;;;;;;10432404;28;20036;-84
2021/12/29 11:42:47;;;;;;;8.65;6.28;;;;;;;;;;10436353;28;20045;-82
2021/12/29 11:47:53;;;;;;;7.60;5.00;;;;;;;;;;10433872;28;20045;-82
2021/12/29 11:53:18;;;;;;;4.85;3.80;;;;;;;;;;10432477;28;20049;-83
2021/12/29 11:58:45;;;;;;;4.25;3.50;;;;;;;;;;10437136;28;20044;-83
2021/12/29 12:03:51;;;;;;;8.55;5.47;;;;;;;;;;10436470;28;20025;-84
2021/12/29 12:09:12;;;;;;;8.18;4.93;;;;;;;;;;10438127;28;20032;-83
2021/12/29 12:14:24;;;;;;;7.95;4.70;;;;;;;;;;10443340;28;20009;-83
2021/12/29 12:19:26;;;;;;;4.55;3.63;;;;;;;;;;10450556;28;20083;-83
2021/12/29 12:24:27;;;;;;;5.03;3.20;;;;;;;;;;10437006;28;20022;-83
2021/12/29 12:29:32;;;;;;;6.22;3.92;;;;;;;;;;10434930;28;20021;-84
2021/12/29 12:34:34;;;;;;;4.32;3.33;;;;;;;;;;10433123;28;20136;-83
2021/12/29 12:39:37;;;;;;;4.80;3.70;;;;;;;;;;10434108;28;20029;-84
2021/12/29 12:44:45;;;;;;;4.93;3.55;;;;;;;;;;10432190;28;20404;-83
2021/12/29 12:49:52;;;;;;;3.95;2.63;;;;;;;;;;10430544;28;20487;-84
2021/12/29 12:54:55;;;;;;;3.75;2.72;;;;;;;;;;10430168;28;20033;-84
2021/12/29 13:00:12;;;;;;;6.15;3.97;;;;;;;;;;10429647;28;20099;-83
2021/12/29 13:05:51;;;;;;;7.03;3.70;;;;;;;;;;10430118;28;20045;-83
2021/12/29 13:10:54;;;;;;;6.07;3.10;;;;;;;;;;10432094;28;20032;-84
2021/12/29 13:15:56;;;;;;;7.18;2.92;;;;;;;;;;10466486;28;20022;-84
2021/12/29 13:21:21;;;;;;;3.78;2.55;;;;;;;;;;10436027;28;20083;-84
2021/12/29 13:26:23;;;;;;;5.45;3.03;;;;;;;;;;10423448;28;20061;-83
2021/12/29 13:31:25;;;;;;;5.47;3.20;;;;;;;;;;10430520;28;20059;-84
2021/12/29 13:36:32;;;;;;;5.28;3.83;;;;;;;;;;10430812;28;20519;-84
2021/12/29 13:41:34;;;;;;;8.70;7.32;;;;;;;;;;10429358;28;20021;-83
2021/12/29 13:46:37;;;;;;;7.97;5.15;;;;;;;;;;10431454;28;20048;-84
2021/12/29 13:51:42;;;;;;;5.93;4.05;;;;;;;;;;10428252;28;20017;-82
2021/12/29 13:56:46;;;;;;;3.50;2.70;;;;;;;;;;10427899;28;20071;-83
2021/12/29 14:01:51;;;;;;;5.18;2.47;;;;;;;;;;10429220;28;20490;-82
2021/12/29 14:06:55;;;;;;;5.43;2.83;;;;;;;;;;10432485;28;20059;-84
2021/12/29 14:12:27;;;;;;;4.47;2.50;;;;;;;;;;10430806;28;20498;-84
2021/12/29 14:17:45;;;;;;;4.80;2.80;;;;;;;;;;10432406;28;20053;-84
2021/12/29 14:22:46;;;;;;;7.03;3.00;;;;;;;;;;10432534;28;20030;-84
2021/12/29 14:27:48;;;;;;;6.75;3.15;;;;;;;;;;10447820;28;20402;-83
2021/12/29 14:33:03;;;;;;;6.22;3.00;;;;;;;;;;10430808;28;20068;-83
2021/12/29 14:38:08;;;;;;;7.13;3.53;;;;;;;;;;10431688;28;20030;-82
2021/12/29 14:43:16;;;;;;;5.63;3.50;;;;;;;;;;10430798;28;20143;-82
2021/12/29 14:48:17;;;;;;;6.05;2.80;;;;;;;;;;10431511;28;20038;-81
2021/12/29 14:53:26;;;;;;;4.28;2.65;;;;;;;;;;10433384;28;20017;-84
2021/12/29 14:58:28;;;;;;;4.75;2.33;;;;;;;;;;10439535;28;20034;-83
2021/12/29 15:03:29;;;;;;;6.68;2.53;;;;;;;;;;10440810;28;20101;-82
2021/12/29 15:08:30;;;;;;;6.65;2.60;;;;;;;;;;10440377;28;20076;-84
2021/12/29 15:13:36;;;;;;;5.70;2.53;;;;;;;;;;10458496;28;20037;-80
2021/12/29 15:18:40;;;;;;;5.32;2.30;;;;;;;;;;10458758;28;20084;-84
2021/12/29 15:23:43;;;;;;;3.75;2.00;;;;;;;;;;10446704;28;20025;-80
2021/12/29 15:28:48;;;;;;;6.50;2.97;;;;;;;;;;10461426;28;20029;-81
2021/12/29 15:33:49;;;;;;;6.25;2.90;;;;;;;;;;10471146;28;20012;-79
2021/12/29 15:38:50;;;;;;;4.35;2.53;;;;;;;;;;10471427;28;20010;-79
2021/12/29 15:43:51;;;;;;;4.78;2.53;;;;;;;;;;10469247;28;20040;-81
2021/12/29 15:48:52;;;;;;;4.47;2.60;;;;;;;;;;10456546;28;20045;-81
2021/12/29 15:53:54;;;;;;;4.13;2.08;;;;;;;;;;10454289;28;20038;-81
2021/12/29 15:58:55;;;;;;;4.07;2.60;;;;;;;;;;10436562;28;20125;-82
2021/12/29 16:03:58;;;;;;;4.28;2.53;;;;;;;;;;10449410;28;20041;-81
2021/12/29 16:08:59;;;;;;;5.22;2.70;;;;;;;;;;10446823;28;20029;-82
2021/12/29 16:14:01;;;;;;;5.35;2.60;;;;;;;;;;10445248;28;20025;-82
2021/12/29 16:19:02;;;;;;;4.97;2.80;;;;;;;;;;10436949;28;20044;-80
2021/12/29 16:24:03;;;;;;;4.63;2.28;;;;;;;;;;10440222;28;20029;-81
2021/12/29 16:29:05;;;;;;;4.90;2.63;;;;;;;;;;10442030;28;20111;-80
2021/12/29 16:34:06;;;;;;;4.45;2.00;;;;;;;;;;10443638;28;20124;-80
2021/12/29 16:39:08;;;;;;;3.50;2.25;;;;;;;;;;10455991;28;20045;-81
2021/12/29 16:44:09;;;;;;;4.07;2.17;;;;;;;;;;10435556;28;20124;-81
2021/12/29 16:49:10;;;;;;;3.33;1.98;;;;;;;;;;10438789;28;20476;-80
2021/12/29 16:54:11;;;;;;;3.53;2.20;;;;;;;;;;10441226;28;20060;-82
2021/12/29 16:59:12;;;;;;;3.90;2.25;;;;;;;;;;10439335;28;20030;-80
2021/12/29 17:04:14;;;;;;;3.25;1.83;;;;;;;;;;10435108;28;20025;-79
2021/12/29 17:09:15;;;;;;;3.75;2.22;;;;;;;;;;10430730;28;20093;-79
2021/12/29 17:14:16;;;;;;;5.63;2.70;;;;;;;;;;10435298;28;20034;-81
2021/12/29 17:19:17;;;;;;;4.60;2.45;;;;;;;;;;10438910;28;20022;-82
2021/12/29 17:24:18;;;;;;;2.97;2.00;;;;;;;;;;10446212;28;20025;-81
2021/12/29 17:29:19;;;;;;;2.72;1.88;;;;;;;;;;10445428;28;20030;-81
2021/12/29 17:34:21;;;;;;;3.50;2.10;;;;;;;;;;10445938;28;20036;-81
2021/12/29 17:39:22;;;;;;;2.53;1.65;;;;;;;;;;10447376;28;20448;-80
2021/12/29 17:44:23;;;;;;;3.08;1.98;;;;;;;;;;10447840;28;20021;-81
2021/12/29 17:49:24;;;;;;;2.92;1.85;;;;;;;;;;10430584;28;20072;-80
2021/12/29 17:54:26;;;;;;;2.50;1.70;;;;;;;;;;10447115;28;20025;-80
2021/12/29 17:59:27;;;;;;;2.35;1.55;;;;;;;;;;10449070;28;20025;-80
2021/12/29 18:04:28;;;;;;;;;;;;;;;;;;10450561;28;20034;-80
2021/12/29 18:09:29;;;;;;;3.20;1.50;;;;;;;;;;10451769;28;19948;-81
2021/12/29 18:14:31;;;;;;;2.35;1.50;;;;;;;;;;10451308;28;20088;-80
2021/12/29 18:19:32;;;;;;;2.90;1.52;;;;;;;;;;10449638;28;20032;-80
2021/12/29 18:24:32;;;;;;;;;;;;;;;;;;10445347;28;20022;-81
2021/12/29 18:29:33;;;;;;;4.13;2.72;;;;;;;;;;10446551;28;19951;-81
2021/12/29 18:34:34;;;;;;;;;;;;;;;;;;10448186;28;20033;-81
2021/12/29 18:39:35;;;;;;;2.72;1.92;;;;;;;;;;10448393;28;19940;-80
2021/12/29 18:44:37;;;;;;;1.88;1.55;;;;;;;;;;10451787;28;20030;-81
2021/12/29 18:49:38;;;;;;;2.35;1.70;;;;;;;;;;10453401;28;20037;-80
2021/12/29 18:54:39;;;;;;;;;;;;;;;;;;10450245;28;20034;-80
2021/12/29 18:59:40;;;;;;;2.58;1.75;;;;;;;;;;10450785;28;19905;-81
2021/12/29 19:04:41;;;;;;;;;;;;;;;;;;10450146;28;20029;-81
2021/12/29 19:09:42;;;;;;;3.50;2.53;;;;;;;;;;10461741;28;19909;-81
2021/12/29 19:14:45;;;;;;;3.05;2.40;;;;;;;;;;10456770;28;20029;-81
2021/12/29 19:19:46;;;;;;;3.42;2.80;;;;;;;;;;10449352;28;20026;-80
2021/12/29 19:24:47;;;;;;;3.40;2.50;;;;;;;;;;10451064;28;20055;-79
2021/12/29 19:29:48;;;;;;;;;;;;;;;;;;10448186;28;20037;-81
2021/12/29 19:34:50;;;;;;;3.03;1.88;;;;;;;;;;10448163;28;19911;-80
2021/12/29 19:39:51;;;;;;;4.88;3.20;;;;;;;;;;10445821;28;20041;-80
2021/12/29 19:44:52;;;;;;;3.20;2.38;;;;;;;;;;10446354;28;20388;-80
2021/12/29 19:49:53;;;;;;;;;;;;;;;;;;10447844;28;20044;-80
2021/12/29 19:54:54;;;;;;;3.83;3.42;;;;;;;;;;10450086;28;19911;-80
2021/12/29 19:59:55;;;;;;;4.82;4.13;;;;;;;;;;10452613;28;20495;-80
2021/12/29 20:04:56;;;;;;;;;;;;;;;;;;10453355;28;20052;-81
2021/12/29 20:09:57;;;;;;;4.50;4.03;;;;;;;;;;10451859;28;19940;-80
2021/12/29 20:14:58;;;;;;;6.18;5.57;;;;;;;;;;10455917;28;20040;-80
2021/12/29 20:19:59;;;;;;;;;;;;;;;;;;10455596;28;20033;-80
2021/12/29 20:25:01;;;;;;;9.13;8.23;;;;;;;;;;10454358;28;19955;-80
2021/12/29 20:30:13;;;;;;;7.60;6.70;;;;;;;;;;10452617;28;20049;-81
2021/12/29 20:35:15;;;;;;;4.47;4.07;;;;;;;;;;10451206;28;20534;-80
2021/12/29 20:40:17;;;;;;;5.40;4.90;;;;;;;;;;10451098;28;20034;-81
2021/12/29 20:45:18;;;;;;;6.50;5.82;;;;;;;;;;10449825;28;20025;-81
2021/12/29 20:50:19;;;;;;;;;;;;;;;;;;10451187;28;20033;-80
2021/12/29 20:55:21;;;;;;;8.23;6.97;;;;;;;;;;10459827;28;19944;-80
2021/12/29 21:00:23;;;;;;;5.22;4.72;;;;;;;;;;10456858;28;20025;-80
2021/12/29 21:05:24;;;;;;;6.80;6.10;;;;;;;;;;10450334;28;20026;-80
2021/12/29 21:10:27;;;;;;;7.00;4.60;;;;;;;;;;10450914;28;20040;-80
